sensor_id;sensor_type;location;lat;lon;timestamp;P1;durP1;ratioP1;P2;durP2;ratioP2
28523;SDS011;15734;50.904;6.922;2022-10-31T00:01:12;16.95;;;7.07;;
28523;SDS011;15734;50.904;6.922;2022-10-31T00:03:44;19.52;;;7.13;;
28523;SDS011;15734;50.904;6.922;2022-10-31T00:06:10;23.50;;;7.30;;
28523;SDS011;15734;50.904;6.922;2022-10-31T00:08:36;16.30;;;6.90;;
28523;SDS011;15734;50.904;6.922;2022-10-31T00:11:01;18.63;;;7.53;;
28523;SDS011;15734;50.904;6.922;2022-10-31T00:13:27;20.92;;;7.63;;
28523;SDS011;15734;50.904;6.922;2022-10-31T00:15:52;18.90;;;6.75;;
28523;SDS011;15734;50.904;6.922;2022-10-31T00:18:18;16.35;;;7.32;;
28523;SDS011;15734;50.904;6.922;2022-10-31T00:20:44;20.05;;;6.93;;
28523;SDS011;15734;50.904;6.922;2022-10-31T00:23:09;24.13;;;7.15;;
28523;SDS011;15734;50.904;6.922;2022-10-31T00:25:37;21.75;;;7.35;;
28523;SDS011;15734;50.904;6.922;2022-10-31T00:28:04;20.40;;;7.85;;
28523;SDS011;15734;50.904;6.922;2022-10-31T00:30:31;17.88;;;6.70;;
28523;SDS011;15734;50.904;6.922;2022-10-31T00:32:57;17.38;;;7.70;;
28523;SDS011;15734;50.904;6.922;2022-10-31T00:35:22;23.33;;;7.72;;
28523;SDS011;15734;50.904;6.922;2022-10-31T00:37:48;20.17;;;7.85;;
28523;SDS011;15734;50.904;6.922;2022-10-31T00:40:14;14.73;;;7.10;;
28523;SDS011;15734;50.904;6.922;2022-10-31T00:42:40;25.38;;;7.22;;
28523;SDS011;15734;50.904;6.922;2022-10-31T00:45:07;19.83;;;7.50;;
28523;SDS011;15734;50.904;6.922;2022-10-31T00:47:33;23.38;;;7.22;;
28523;SDS011;15734;50.904;6.922;2022-10-31T00:49:59;18.02;;;7.75;;
28523;SDS011;15734;50.904;6.922;2022-10-31T00:52:24;24.70;;;8.23;;
28523;SDS011;15734;50.904;6.922;2022-10-31T00:54:50;23.48;;;8.60;;
28523;SDS011;15734;50.904;6.922;2022-10-31T00:57:15;18.13;;;7.32;;
28523;SDS011;15734;50.904;6.922;2022-10-31T00:59:41;20.30;;;8.25;;
28523;SDS011;15734;50.904;6.922;2022-10-31T01:02:06;16.55;;;7.13;;
28523;SDS011;15734;50.904;6.922;2022-10-31T01:04:32;21.33;;;8.13;;
28523;SDS011;15734;50.904;6.922;2022-10-31T01:06:57;15.07;;;6.95;;
28523;SDS011;15734;50.904;6.922;2022-10-31T01:09:23;25.27;;;7.78;;
28523;SDS011;15734;50.904;6.922;2022-10-31T01:11:48;18.40;;;7.75;;
28523;SDS011;15734;50.904;6.922;2022-10-31T01:14:14;31.10;;;7.35;;
28523;SDS011;15734;50.904;6.922;2022-10-31T01:16:39;24.90;;;9.43;;
28523;SDS011;15734;50.904;6.922;2022-10-31T01:19:05;27.15;;;8.15;;
28523;SDS011;15734;50.904;6.922;2022-10-31T01:21:30;19.30;;;7.25;;
28523;SDS011;15734;50.904;6.922;2022-10-31T01:23:56;15.32;;;7.32;;
28523;SDS011;15734;50.904;6.922;2022-10-31T01:26:25;26.38;;;8.02;;
28523;SDS011;15734;50.904;6.922;2022-10-31T01:28:54;19.38;;;7.65;;
28523;SDS011;15734;50.904;6.922;2022-10-31T01:31:22;21.75;;;8.20;;
28523;SDS011;15734;50.904;6.922;2022-10-31T01:33:50;27.55;;;7.78;;
28523;SDS011;15734;50.904;6.922;2022-10-31T01:36:17;17.33;;;7.18;;
28523;SDS011;15734;50.904;6.922;2022-10-31T01:38:46;16.02;;;7.00;;
28523;SDS011;15734;50.904;6.922;2022-10-31T01:41:14;16.30;;;7.32;;
28523;SDS011;15734;50.904;6.922;2022-10-31T01:46:20;22.67;;;8.10;;
28523;SDS011;15734;50.904;6.922;2022-10-31T01:48:51;15.77;;;7.30;;
28523;SDS011;15734;50.904;6.922;2022-10-31T01:51:18;16.63;;;7.20;;
28523;SDS011;15734;50.904;6.922;2022-10-31T01:53:48;27.38;;;8.40;;
28523;SDS011;15734;50.904;6.922;2022-10-31T01:56:16;24.27;;;7.95;;
28523;SDS011;15734;50.904;6.922;2022-10-31T01:58:42;20.42;;;7.00;;
28523;SDS011;15734;50.904;6.922;2022-10-31T02:01:11;14.45;;;7.15;;
28523;SDS011;15734;50.904;6.922;2022-10-31T02:03:38;28.83;;;9.07;;
28523;SDS011;15734;50.904;6.922;2022-10-31T02:06:05;30.25;;;9.45;;
28523;SDS011;15734;50.904;6.922;2022-10-31T02:08:35;20.58;;;8.68;;
28523;SDS011;15734;50.904;6.922;2022-10-31T02:11:03;18.75;;;7.82;;
28523;SDS011;15734;50.904;6.922;2022-10-31T02:13:30;18.10;;;8.25;;
28523;SDS011;15734;50.904;6.922;2022-10-31T02:15:57;31.80;;;9.60;;
28523;SDS011;15734;50.904;6.922;2022-10-31T02:18:24;30.17;;;8.93;;
28523;SDS011;15734;50.904;6.922;2022-10-31T02:26:38;28.25;;;8.27;;
28523;SDS011;15734;50.904;6.922;2022-10-31T02:35:03;18.92;;;8.80;;
28523;SDS011;15734;50.904;6.922;2022-10-31T02:40:32;14.52;;;7.47;;
28523;SDS011;15734;50.904;6.922;2022-10-31T02:48:20;23.70;;;9.20;;
28523;SDS011;15734;50.904;6.922;2022-10-31T02:51:08;24.92;;;8.05;;
28523;SDS011;15734;50.904;6.922;2022-10-31T02:53:36;19.17;;;8.65;;
28523;SDS011;15734;50.904;6.922;2022-10-31T02:58:35;22.10;;;8.30;;
28523;SDS011;15734;50.904;6.922;2022-10-31T03:01:16;27.13;;;8.35;;
28523;SDS011;15734;50.904;6.922;2022-10-31T03:06:50;20.17;;;7.53;;
28523;SDS011;15734;50.904;6.922;2022-10-31T03:12:02;25.88;;;8.70;;
28523;SDS011;15734;50.904;6.922;2022-10-31T03:14:40;26.77;;;8.70;;
28523;SDS011;15734;50.904;6.922;2022-10-31T03:17:42;27.70;;;8.63;;
28523;SDS011;15734;50.904;6.922;2022-10-31T03:20:21;28.30;;;8.15;;
28523;SDS011;15734;50.904;6.922;2022-10-31T03:22:51;28.80;;;9.45;;
28523;SDS011;15734;50.904;6.922;2022-10-31T03:25:19;22.75;;;8.43;;
28523;SDS011;15734;50.904;6.922;2022-10-31T03:27:45;17.85;;;7.55;;
28523;SDS011;15734;50.904;6.922;2022-10-31T03:30:12;18.45;;;8.23;;
28523;SDS011;15734;50.904;6.922;2022-10-31T03:32:42;17.30;;;8.30;;
28523;SDS011;15734;50.904;6.922;2022-10-31T03:35:14;19.38;;;8.07;;
28523;SDS011;15734;50.904;6.922;2022-10-31T03:37:43;22.30;;;9.55;;
28523;SDS011;15734;50.904;6.922;2022-10-31T03:40:10;19.90;;;8.50;;
28523;SDS011;15734;50.904;6.922;2022-10-31T03:42:40;28.92;;;8.93;;
28523;SDS011;15734;50.904;6.922;2022-10-31T03:45:17;29.60;;;8.82;;
28523;SDS011;15734;50.904;6.922;2022-10-31T03:47:49;19.15;;;8.60;;
28523;SDS011;15734;50.904;6.922;2022-10-31T03:50:16;19.23;;;8.75;;
28523;SDS011;15734;50.904;6.922;2022-10-31T03:53:03;20.33;;;7.50;;
28523;SDS011;15734;50.904;6.922;2022-10-31T03:56:07;22.27;;;8.23;;
28523;SDS011;15734;50.904;6.922;2022-10-31T03:58:39;17.83;;;7.95;;
28523;SDS011;15734;50.904;6.922;2022-10-31T04:01:14;22.40;;;8.77;;
28523;SDS011;15734;50.904;6.922;2022-10-31T04:03:43;24.27;;;8.50;;
28523;SDS011;15734;50.904;6.922;2022-10-31T04:06:10;17.50;;;8.02;;
28523;SDS011;15734;50.904;6.922;2022-10-31T04:08:41;26.58;;;7.68;;
28523;SDS011;15734;50.904;6.922;2022-10-31T04:11:10;22.17;;;8.40;;
28523;SDS011;15734;50.904;6.922;2022-10-31T04:13:38;25.88;;;8.65;;
28523;SDS011;15734;50.904;6.922;2022-10-31T04:16:05;19.05;;;9.25;;
28523;SDS011;15734;50.904;6.922;2022-10-31T04:18:31;22.98;;;9.13;;
28523;SDS011;15734;50.904;6.922;2022-10-31T04:21:01;16.83;;;7.60;;
28523;SDS011;15734;50.904;6.922;2022-10-31T04:23:28;17.77;;;8.48;;
28523;SDS011;15734;50.904;6.922;2022-10-31T04:25:55;26.58;;;8.73;;
28523;SDS011;15734;50.904;6.922;2022-10-31T04:28:20;23.45;;;9.73;;
28523;SDS011;15734;50.904;6.922;2022-10-31T04:30:46;28.60;;;8.75;;
28523;SDS011;15734;50.904;6.922;2022-10-31T04:33:11;22.55;;;8.55;;
28523;SDS011;15734;50.904;6.922;2022-10-31T04:35:37;25.55;;;8.05;;
28523;SDS011;15734;50.904;6.922;2022-10-31T04:38:02;17.73;;;8.18;;
28523;SDS011;15734;50.904;6.922;2022-10-31T04:40:28;28.90;;;9.40;;
28523;SDS011;15734;50.904;6.922;2022-10-31T04:42:53;24.20;;;9.13;;
28523;SDS011;15734;50.904;6.922;2022-10-31T04:45:19;25.90;;;9.52;;
28523;SDS011;15734;50.904;6.922;2022-10-31T04:47:44;29.17;;;9.95;;
28523;SDS011;15734;50.904;6.922;2022-10-31T04:50:10;23.38;;;9.15;;
28523;SDS011;15734;50.904;6.922;2022-10-31T04:52:39;20.52;;;9.43;;
28523;SDS011;15734;50.904;6.922;2022-10-31T04:55:05;24.27;;;10.23;;
28523;SDS011;15734;50.904;6.922;2022-10-31T04:57:31;19.25;;;8.77;;
28523;SDS011;15734;50.904;6.922;2022-10-31T04:59:56;18.23;;;9.65;;
28523;SDS011;15734;50.904;6.922;2022-10-31T05:02:22;26.15;;;8.98;;
28523;SDS011;15734;50.904;6.922;2022-10-31T05:04:47;23.40;;;9.40;;
28523;SDS011;15734;50.904;6.922;2022-10-31T05:07:13;27.88;;;9.32;;
28523;SDS011;15734;50.904;6.922;2022-10-31T05:09:38;20.35;;;9.10;;
28523;SDS011;15734;50.904;6.922;2022-10-31T05:12:04;19.88;;;8.63;;
28523;SDS011;15734;50.904;6.922;2022-10-31T05:14:29;20.58;;;8.63;;
28523;SDS011;15734;50.904;6.922;2022-10-31T05:16:55;22.38;;;8.68;;
28523;SDS011;15734;50.904;6.922;2022-10-31T05:19:20;18.23;;;9.10;;
28523;SDS011;15734;50.904;6.922;2022-10-31T05:21:46;25.63;;;8.50;;
28523;SDS011;15734;50.904;6.922;2022-10-31T05:24:11;25.00;;;8.75;;
28523;SDS011;15734;50.904;6.922;2022-10-31T05:26:37;15.70;;;7.72;;
28523;SDS011;15734;50.904;6.922;2022-10-31T05:29:02;17.38;;;9.20;;
28523;SDS011;15734;50.904;6.922;2022-10-31T05:31:28;17.17;;;8.52;;
28523;SDS011;15734;50.904;6.922;2022-10-31T05:33:53;25.95;;;9.52;;
28523;SDS011;15734;50.904;6.922;2022-10-31T05:36:19;24.25;;;9.05;;
28523;SDS011;15734;50.904;6.922;2022-10-31T05:38:44;28.73;;;9.18;;
28523;SDS011;15734;50.904;6.922;2022-10-31T05:41:10;24.55;;;9.27;;
28523;SDS011;15734;50.904;6.922;2022-10-31T05:43:35;33.38;;;8.95;;
28523;SDS011;15734;50.904;6.922;2022-10-31T05:46:01;21.75;;;8.98;;
28523;SDS011;15734;50.904;6.922;2022-10-31T05:48:27;25.92;;;10.13;;
28523;SDS011;15734;50.904;6.922;2022-10-31T05:50:53;21.80;;;8.80;;
28523;SDS011;15734;50.904;6.922;2022-10-31T05:53:18;18.15;;;7.90;;
28523;SDS011;15734;50.904;6.922;2022-10-31T05:55:44;23.02;;;8.50;;
28523;SDS011;15734;50.904;6.922;2022-10-31T05:58:10;25.70;;;9.40;;
28523;SDS011;15734;50.904;6.922;2022-10-31T06:00:35;22.40;;;8.82;;
28523;SDS011;15734;50.904;6.922;2022-10-31T06:03:05;22.90;;;9.63;;
28523;SDS011;15734;50.904;6.922;2022-10-31T06:05:32;23.67;;;9.73;;
28523;SDS011;15734;50.904;6.922;2022-10-31T06:07:58;25.27;;;8.60;;
28523;SDS011;15734;50.904;6.922;2022-10-31T06:10:24;24.42;;;9.73;;
28523;SDS011;15734;50.904;6.922;2022-10-31T06:12:50;21.70;;;8.68;;
28523;SDS011;15734;50.904;6.922;2022-10-31T06:15:16;18.15;;;9.25;;
28523;SDS011;15734;50.904;6.922;2022-10-31T06:17:42;20.92;;;8.80;;
28523;SDS011;15734;50.904;6.922;2022-10-31T06:20:08;20.77;;;8.52;;
28523;SDS011;15734;50.904;6.922;2022-10-31T06:22:33;25.30;;;8.88;;
28523;SDS011;15734;50.904;6.922;2022-10-31T06:24:59;24.00;;;8.35;;
28523;SDS011;15734;50.904;6.922;2022-10-31T06:27:25;22.60;;;8.88;;
28523;SDS011;15734;50.904;6.922;2022-10-31T06:29:50;26.05;;;9.93;;
28523;SDS011;15734;50.904;6.922;2022-10-31T06:32:16;24.33;;;8.45;;
28523;SDS011;15734;50.904;6.922;2022-10-31T06:34:42;16.92;;;8.93;;
28523;SDS011;15734;50.904;6.922;2022-10-31T06:37:08;18.92;;;8.13;;
28523;SDS011;15734;50.904;6.922;2022-10-31T06:39:36;18.02;;;7.50;;
28523;SDS011;15734;50.904;6.922;2022-10-31T06:42:02;26.63;;;9.50;;
28523;SDS011;15734;50.904;6.922;2022-10-31T06:44:28;23.25;;;7.68;;
28523;SDS011;15734;50.904;6.922;2022-10-31T06:46:54;21.67;;;8.93;;
28523;SDS011;15734;50.904;6.922;2022-10-31T06:49:20;20.50;;;9.07;;
28523;SDS011;15734;50.904;6.922;2022-10-31T06:51:48;16.75;;;8.63;;
28523;SDS011;15734;50.904;6.922;2022-10-31T06:54:14;25.55;;;8.90;;
28523;SDS011;15734;50.904;6.922;2022-10-31T06:56:40;23.70;;;9.85;;
28523;SDS011;15734;50.904;6.922;2022-10-31T06:59:06;29.33;;;9.20;;
28523;SDS011;15734;50.904;6.922;2022-10-31T07:01:32;16.63;;;8.52;;
28523;SDS011;15734;50.904;6.922;2022-10-31T07:03:58;21.42;;;9.00;;
28523;SDS011;15734;50.904;6.922;2022-10-31T07:06:24;22.02;;;8.27;;
28523;SDS011;15734;50.904;6.922;2022-10-31T07:08:49;23.95;;;8.20;;
28523;SDS011;15734;50.904;6.922;2022-10-31T07:11:15;19.88;;;8.18;;
28523;SDS011;15734;50.904;6.922;2022-10-31T07:13:40;25.25;;;9.52;;
28523;SDS011;15734;50.904;6.922;2022-10-31T07:16:06;19.67;;;9.32;;
28523;SDS011;15734;50.904;6.922;2022-10-31T07:18:32;20.92;;;8.73;;
28523;SDS011;15734;50.904;6.922;2022-10-31T07:20:58;21.92;;;8.95;;
28523;SDS011;15734;50.904;6.922;2022-10-31T07:23:24;33.88;;;8.80;;
28523;SDS011;15734;50.904;6.922;2022-10-31T07:25:54;18.30;;;9.73;;
28523;SDS011;15734;50.904;6.922;2022-10-31T07:28:21;28.83;;;9.00;;
28523;SDS011;15734;50.904;6.922;2022-10-31T07:30:50;26.10;;;8.55;;
28523;SDS011;15734;50.904;6.922;2022-10-31T07:33:17;27.52;;;10.13;;
28523;SDS011;15734;50.904;6.922;2022-10-31T07:35:42;20.02;;;9.77;;
28523;SDS011;15734;50.904;6.922;2022-10-31T07:38:09;22.00;;;9.23;;
28523;SDS011;15734;50.904;6.922;2022-10-31T07:40:35;24.00;;;8.48;;
28523;SDS011;15734;50.904;6.922;2022-10-31T07:43:01;19.45;;;8.25;;
28523;SDS011;15734;50.904;6.922;2022-10-31T07:45:26;19.15;;;9.15;;
28523;SDS011;15734;50.904;6.922;2022-10-31T07:47:52;23.25;;;9.27;;
28523;SDS011;15734;50.904;6.922;2022-10-31T07:50:19;19.00;;;8.60;;
28523;SDS011;15734;50.904;6.922;2022-10-31T07:55:27;21.52;;;9.20;;
28523;SDS011;15734;50.904;6.922;2022-10-31T07:58:00;18.00;;;8.05;;
28523;SDS011;15734;50.904;6.922;2022-10-31T08:00:27;19.90;;;7.70;;
28523;SDS011;15734;50.904;6.922;2022-10-31T08:02:57;16.65;;;8.07;;
28523;SDS011;15734;50.904;6.922;2022-10-31T08:05:27;18.75;;;8.00;;
28523;SDS011;15734;50.904;6.922;2022-10-31T08:07:53;28.15;;;12.00;;
28523;SDS011;15734;50.904;6.922;2022-10-31T08:10:19;24.17;;;9.00;;
28523;SDS011;15734;50.904;6.922;2022-10-31T08:12:45;32.13;;;9.80;;
28523;SDS011;15734;50.904;6.922;2022-10-31T08:15:10;24.88;;;8.98;;
28523;SDS011;15734;50.904;6.922;2022-10-31T08:17:36;20.75;;;8.57;;
28523;SDS011;15734;50.904;6.922;2022-10-31T08:20:03;31.25;;;9.65;;
28523;SDS011;15734;50.904;6.922;2022-10-31T08:22:29;25.70;;;9.43;;
28523;SDS011;15734;50.904;6.922;2022-10-31T08:24:55;23.20;;;9.77;;
28523;SDS011;15734;50.904;6.922;2022-10-31T08:27:20;27.27;;;9.35;;
28523;SDS011;15734;50.904;6.922;2022-10-31T08:29:46;22.38;;;9.98;;
28523;SDS011;15734;50.904;6.922;2022-10-31T08:32:12;20.50;;;8.80;;
28523;SDS011;15734;50.904;6.922;2022-10-31T08:34:37;23.67;;;8.98;;
28523;SDS011;15734;50.904;6.922;2022-10-31T08:37:03;21.15;;;8.95;;
28523;SDS011;15734;50.904;6.922;2022-10-31T08:39:28;21.33;;;9.43;;
28523;SDS011;15734;50.904;6.922;2022-10-31T08:41:54;20.55;;;9.05;;
28523;SDS011;15734;50.904;6.922;2022-10-31T08:44:19;27.50;;;10.35;;
28523;SDS011;15734;50.904;6.922;2022-10-31T08:46:45;28.67;;;9.52;;
28523;SDS011;15734;50.904;6.922;2022-10-31T08:49:10;19.98;;;8.27;;
28523;SDS011;15734;50.904;6.922;2022-10-31T08:51:36;19.88;;;9.18;;
28523;SDS011;15734;50.904;6.922;2022-10-31T08:54:01;22.10;;;9.20;;
28523;SDS011;15734;50.904;6.922;2022-10-31T08:56:27;22.15;;;8.85;;
28523;SDS011;15734;50.904;6.922;2022-10-31T08:58:53;27.30;;;8.75;;
28523;SDS011;15734;50.904;6.922;2022-10-31T09:01:18;24.48;;;8.90;;
28523;SDS011;15734;50.904;6.922;2022-10-31T09:03:44;23.75;;;9.43;;
28523;SDS011;15734;50.904;6.922;2022-10-31T09:06:10;28.80;;;9.55;;
28523;SDS011;15734;50.904;6.922;2022-10-31T09:08:35;21.23;;;8.57;;
28523;SDS011;15734;50.904;6.922;2022-10-31T09:11:01;20.88;;;8.75;;
28523;SDS011;15734;50.904;6.922;2022-10-31T09:13:28;27.17;;;8.60;;
28523;SDS011;15734;50.904;6.922;2022-10-31T09:15:53;17.58;;;7.55;;
28523;SDS011;15734;50.904;6.922;2022-10-31T09:18:21;15.90;;;7.70;;
28523;SDS011;15734;50.904;6.922;2022-10-31T09:20:48;29.85;;;7.93;;
28523;SDS011;15734;50.904;6.922;2022-10-31T09:23:15;19.35;;;8.27;;
28523;SDS011;15734;50.904;6.922;2022-10-31T09:25:43;14.10;;;7.10;;
28523;SDS011;15734;50.904;6.922;2022-10-31T09:28:10;23.00;;;8.18;;
28523;SDS011;15734;50.904;6.922;2022-10-31T09:30:37;17.08;;;7.85;;
28523;SDS011;15734;50.904;6.922;2022-10-31T09:33:05;17.98;;;7.43;;
28523;SDS011;15734;50.904;6.922;2022-10-31T09:35:32;16.25;;;7.70;;
28523;SDS011;15734;50.904;6.922;2022-10-31T09:37:59;22.55;;;7.00;;
28523;SDS011;15734;50.904;6.922;2022-10-31T09:40:38;19.35;;;7.75;;
28523;SDS011;15734;50.904;6.922;2022-10-31T09:48:27;18.23;;;7.30;;
28523;SDS011;15734;50.904;6.922;2022-10-31T09:51:49;20.98;;;7.75;;
28523;SDS011;15734;50.904;6.922;2022-10-31T09:54:16;15.45;;;7.50;;
28523;SDS011;15734;50.904;6.922;2022-10-31T09:56:46;18.65;;;7.38;;
28523;SDS011;15734;50.904;6.922;2022-10-31T09:59:17;22.63;;;7.38;;
28523;SDS011;15734;50.904;6.922;2022-10-31T10:01:51;24.20;;;7.68;;
28523;SDS011;15734;50.904;6.922;2022-10-31T10:13:04;20.42;;;7.13;;
28523;SDS011;15734;50.904;6.922;2022-10-31T10:18:18;13.20;;;6.78;;
28523;SDS011;15734;50.904;6.922;2022-10-31T10:26:33;18.45;;;6.05;;
28523;SDS011;15734;50.904;6.922;2022-10-31T10:34:24;15.75;;;6.28;;
28523;SDS011;15734;50.904;6.922;2022-10-31T10:36:56;17.88;;;6.20;;
28523;SDS011;15734;50.904;6.922;2022-10-31T10:39:31;12.38;;;6.07;;
28523;SDS011;15734;50.904;6.922;2022-10-31T10:42:12;15.13;;;5.72;;
28523;SDS011;15734;50.904;6.922;2022-10-31T10:44:58;16.25;;;6.40;;
28523;SDS011;15734;50.904;6.922;2022-10-31T10:47:44;15.30;;;6.10;;
28523;SDS011;15734;50.904;6.922;2022-10-31T10:50:21;19.10;;;6.22;;
28523;SDS011;15734;50.904;6.922;2022-10-31T10:55:58;18.75;;;7.15;;
28523;SDS011;15734;50.904;6.922;2022-10-31T10:58:44;23.63;;;6.88;;
28523;SDS011;15734;50.904;6.922;2022-10-31T11:01:13;18.70;;;6.75;;
28523;SDS011;15734;50.904;6.922;2022-10-31T11:03:40;20.45;;;6.88;;
28523;SDS011;15734;50.904;6.922;2022-10-31T11:06:15;16.52;;;6.30;;
28523;SDS011;15734;50.904;6.922;2022-10-31T11:08:45;15.45;;;5.78;;
28523;SDS011;15734;50.904;6.922;2022-10-31T11:13:43;16.08;;;5.93;;
28523;SDS011;15734;50.904;6.922;2022-10-31T11:18:52;24.20;;;6.88;;
28523;SDS011;15734;50.904;6.922;2022-10-31T11:21:19;14.02;;;5.78;;
28523;SDS011;15734;50.904;6.922;2022-10-31T11:23:47;12.93;;;5.65;;
28523;SDS011;15734;50.904;6.922;2022-10-31T11:26:19;13.57;;;5.80;;
28523;SDS011;15734;50.904;6.922;2022-10-31T11:28:55;10.98;;;5.47;;
28523;SDS011;15734;50.904;6.922;2022-10-31T11:31:22;16.77;;;4.97;;
28523;SDS011;15734;50.904;6.922;2022-10-31T11:33:49;16.30;;;5.82;;
28523;SDS011;15734;50.904;6.922;2022-10-31T11:36:28;17.52;;;5.93;;
28523;SDS011;15734;50.904;6.922;2022-10-31T11:38:56;14.65;;;5.45;;
28523;SDS011;15734;50.904;6.922;2022-10-31T11:41:28;14.15;;;6.50;;
28523;SDS011;15734;50.904;6.922;2022-10-31T11:44:01;21.95;;;5.88;;
28523;SDS011;15734;50.904;6.922;2022-10-31T11:46:33;11.10;;;5.90;;
28523;SDS011;15734;50.904;6.922;2022-10-31T11:49:02;22.85;;;5.93;;
28523;SDS011;15734;50.904;6.922;2022-10-31T11:51:31;18.23;;;5.80;;
28523;SDS011;15734;50.904;6.922;2022-10-31T11:53:58;16.40;;;5.20;;
28523;SDS011;15734;50.904;6.922;2022-10-31T11:56:27;11.70;;;5.82;;
28523;SDS011;15734;50.904;6.922;2022-10-31T11:59:03;19.50;;;5.47;;
28523;SDS011;15734;50.904;6.922;2022-10-31T12:01:31;17.90;;;6.15;;
28523;SDS011;15734;50.904;6.922;2022-10-31T12:04:00;16.02;;;4.80;;
28523;SDS011;15734;50.904;6.922;2022-10-31T12:06:41;21.40;;;5.57;;
28523;SDS011;15734;50.904;6.922;2022-10-31T12:14:33;8.63;;;4.93;;
28523;SDS011;15734;50.904;6.922;2022-10-31T12:17:14;25.23;;;5.18;;
28523;SDS011;15734;50.904;6.922;2022-10-31T12:22:34;17.15;;;5.70;;
28523;SDS011;15734;50.904;6.922;2022-10-31T12:25:21;17.27;;;6.18;;
28523;SDS011;15734;50.904;6.922;2022-10-31T12:38:57;17.70;;;4.83;;
28523;SDS011;15734;50.904;6.922;2022-10-31T12:44:17;15.02;;;4.93;;
28523;SDS011;15734;50.904;6.922;2022-10-31T12:46:59;13.50;;;4.60;;
28523;SDS011;15734;50.904;6.922;2022-10-31T12:57:33;14.45;;;4.95;;
28523;SDS011;15734;50.904;6.922;2022-10-31T13:00:07;11.07;;;4.57;;
28523;SDS011;15734;50.904;6.922;2022-10-31T13:03:00;11.63;;;4.75;;
28523;SDS011;15734;50.904;6.922;2022-10-31T13:05:36;15.45;;;5.03;;
28523;SDS011;15734;50.904;6.922;2022-10-31T13:08:06;20.27;;;5.43;;
28523;SDS011;15734;50.904;6.922;2022-10-31T13:10:56;18.85;;;4.63;;
28523;SDS011;15734;50.904;6.922;2022-10-31T13:13:27;18.65;;;5.13;;
28523;SDS011;15734;50.904;6.922;2022-10-31T13:24:44;14.70;;;5.22;;
28523;SDS011;15734;50.904;6.922;2022-10-31T13:27:26;13.68;;;5.35;;
28523;SDS011;15734;50.904;6.922;2022-10-31T13:35:33;22.85;;;5.05;;
28523;SDS011;15734;50.904;6.922;2022-10-31T13:41:09;8.63;;;4.28;;
28523;SDS011;15734;50.904;6.922;2022-10-31T13:44:02;14.57;;;4.63;;
28523;SDS011;15734;50.904;6.922;2022-10-31T13:46:39;15.52;;;5.13;;
28523;SDS011;15734;50.904;6.922;2022-10-31T13:52:05;16.45;;;4.35;;
28523;SDS011;15734;50.904;6.922;2022-10-31T13:54:34;12.75;;;5.10;;
28523;SDS011;15734;50.904;6.922;2022-10-31T13:57:01;9.65;;;4.88;;
28523;SDS011;15734;50.904;6.922;2022-10-31T13:59:27;13.75;;;4.60;;
28523;SDS011;15734;50.904;6.922;2022-10-31T14:01:57;16.40;;;4.72;;
28523;SDS011;15734;50.904;6.922;2022-10-31T14:04:59;16.23;;;4.72;;
28523;SDS011;15734;50.904;6.922;2022-10-31T14:17:45;11.55;;;5.15;;
28523;SDS011;15734;50.904;6.922;2022-10-31T14:22:37;15.82;;;5.00;;
28523;SDS011;15734;50.904;6.922;2022-10-31T14:27:57;26.35;;;5.65;;
28523;SDS011;15734;50.904;6.922;2022-10-31T14:30:25;19.80;;;5.13;;
28523;SDS011;15734;50.904;6.922;2022-10-31T14:32:55;16.27;;;4.63;;
28523;SDS011;15734;50.904;6.922;2022-10-31T14:35:29;18.15;;;5.80;;
28523;SDS011;15734;50.904;6.922;2022-10-31T14:43:46;20.48;;;4.82;;
28523;SDS011;15734;50.904;6.922;2022-10-31T14:46:44;14.68;;;3.70;;
28523;SDS011;15734;50.904;6.922;2022-10-31T14:52:25;18.95;;;4.63;;
28523;SDS011;15734;50.904;6.922;2022-10-31T14:54:52;17.10;;;4.70;;
28523;SDS011;15734;50.904;6.922;2022-10-31T14:57:27;12.20;;;4.40;;
28523;SDS011;15734;50.904;6.922;2022-10-31T14:59:58;18.27;;;4.38;;
28523;SDS011;15734;50.904;6.922;2022-10-31T15:05:07;19.02;;;4.72;;
28523;SDS011;15734;50.904;6.922;2022-10-31T15:07:33;14.70;;;4.60;;
28523;SDS011;15734;50.904;6.922;2022-10-31T15:10:00;22.80;;;4.70;;
28523;SDS011;15734;50.904;6.922;2022-10-31T15:14:55;14.52;;;4.55;;
28523;SDS011;15734;50.904;6.922;2022-10-31T15:17:22;14.23;;;3.88;;
28523;SDS011;15734;50.904;6.922;2022-10-31T15:19:49;14.45;;;4.43;;
28523;SDS011;15734;50.904;6.922;2022-10-31T15:22:17;13.13;;;4.30;;
28523;SDS011;15734;50.904;6.922;2022-10-31T15:24:44;11.38;;;4.50;;
28523;SDS011;15734;50.904;6.922;2022-10-31T15:27:13;14.63;;;4.07;;
28523;SDS011;15734;50.904;6.922;2022-10-31T15:32:44;20.52;;;4.25;;
28523;SDS011;15734;50.904;6.922;2022-10-31T15:35:14;21.20;;;4.45;;
28523;SDS011;15734;50.904;6.922;2022-10-31T15:38:01;11.77;;;4.10;;
28523;SDS011;15734;50.904;6.922;2022-10-31T15:40:27;20.95;;;4.53;;
28523;SDS011;15734;50.904;6.922;2022-10-31T15:42:54;13.02;;;4.18;;
28523;SDS011;15734;50.904;6.922;2022-10-31T15:45:23;17.05;;;3.83;;
28523;SDS011;15734;50.904;6.922;2022-10-31T15:50:31;14.50;;;4.20;;
28523;SDS011;15734;50.904;6.922;2022-10-31T15:53:02;16.85;;;3.92;;
28523;SDS011;15734;50.904;6.922;2022-10-31T15:55:29;11.98;;;4.35;;
28523;SDS011;15734;50.904;6.922;2022-10-31T15:57:58;16.38;;;3.72;;
28523;SDS011;15734;50.904;6.922;2022-10-31T16:00:31;16.00;;;3.72;;
28523;SDS011;15734;50.904;6.922;2022-10-31T16:05:43;12.48;;;4.55;;
28523;SDS011;15734;50.904;6.922;2022-10-31T16:13:36;10.05;;;4.65;;
28523;SDS011;15734;50.904;6.922;2022-10-31T16:16:12;14.23;;;4.45;;
28523;SDS011;15734;50.904;6.922;2022-10-31T16:18:39;15.02;;;4.53;;
28523;SDS011;15734;50.904;6.922;2022-10-31T16:21:06;13.00;;;4.43;;
28523;SDS011;15734;50.904;6.922;2022-10-31T16:23:32;10.23;;;3.80;;
28523;SDS011;15734;50.904;6.922;2022-10-31T16:25:58;13.52;;;4.28;;
28523;SDS011;15734;50.904;6.922;2022-10-31T16:28:25;18.17;;;4.75;;
28523;SDS011;15734;50.904;6.922;2022-10-31T16:30:55;17.33;;;4.78;;
28523;SDS011;15734;50.904;6.922;2022-10-31T16:33:30;13.77;;;4.60;;
28523;SDS011;15734;50.904;6.922;2022-10-31T16:36:13;12.00;;;4.30;;
28523;SDS011;15734;50.904;6.922;2022-10-31T16:38:53;15.10;;;4.97;;
28523;SDS011;15734;50.904;6.922;2022-10-31T16:41:22;20.48;;;5.25;;
28523;SDS011;15734;50.904;6.922;2022-10-31T16:43:48;14.82;;;4.95;;
28523;SDS011;15734;50.904;6.922;2022-10-31T16:46:15;18.23;;;4.70;;
28523;SDS011;15734;50.904;6.922;2022-10-31T16:48:45;15.45;;;4.38;;
28523;SDS011;15734;50.904;6.922;2022-10-31T16:51:10;12.25;;;4.53;;
28523;SDS011;15734;50.904;6.922;2022-10-31T16:53:36;14.63;;;6.88;;
28523;SDS011;15734;50.904;6.922;2022-10-31T16:56:02;16.55;;;4.57;;
28523;SDS011;15734;50.904;6.922;2022-10-31T16:58:31;13.77;;;4.43;;
28523;SDS011;15734;50.904;6.922;2022-10-31T17:00:59;11.07;;;3.78;;
28523;SDS011;15734;50.904;6.922;2022-10-31T17:03:26;22.48;;;4.90;;
28523;SDS011;15734;50.904;6.922;2022-10-31T17:05:52;12.82;;;5.05;;
28523;SDS011;15734;50.904;6.922;2022-10-31T17:08:20;15.45;;;5.05;;
28523;SDS011;15734;50.904;6.922;2022-10-31T17:10:46;7.78;;;4.10;;
28523;SDS011;15734;50.904;6.922;2022-10-31T17:13:20;14.25;;;4.07;;
28523;SDS011;15734;50.904;6.922;2022-10-31T17:15:48;13.80;;;4.30;;
28523;SDS011;15734;50.904;6.922;2022-10-31T17:18:16;15.93;;;4.20;;
28523;SDS011;15734;50.904;6.922;2022-10-31T17:20:42;16.90;;;4.75;;
28523;SDS011;15734;50.904;6.922;2022-10-31T17:23:09;16.38;;;4.93;;
28523;SDS011;15734;50.904;6.922;2022-10-31T17:25:38;15.45;;;4.13;;
28523;SDS011;15734;50.904;6.922;2022-10-31T17:28:04;12.75;;;4.93;;